sensor_id;sensor_type;location;lat;lon;timestamp;temperature;humidity
42803;DHT22;28447;48.682;9.022;2022-07-18T13:41:57;41.50;55.10
42803;DHT22;28447;48.682;9.022;2022-07-18T13:49:15;39.40;57.50
42803;DHT22;28447;48.682;9.022;2022-07-18T13:51:41;41.30;58.20
42803;DHT22;28447;48.682;9.022;2022-07-18T13:54:07;41.60;55.10
42803;DHT22;28447;48.682;9.022;2022-07-18T14:25:45;42.40;51.30
42803;DHT22;28447;48.682;9.022;2022-07-18T14:30:39;42.50;53.60
42803;DHT22;28447;48.682;9.022;2022-07-18T15:38:51;40.40;53.00
42803;DHT22;28447;48.682;9.022;2022-07-18T15:46:12;42.10;52.50
42803;DHT22;28447;48.682;9.022;2022-07-18T15:48:45;41.60;53.10
42803;DHT22;28447;48.682;9.022;2022-07-18T15:51:12;41.40;52.70
42803;DHT22;28447;48.682;9.022;2022-07-18T15:53:39;41.70;54.00
42803;DHT22;28447;48.682;9.022;2022-07-18T15:56:05;41.40;53.60
42803;DHT22;28447;48.682;9.022;2022-07-18T15:58:31;39.60;53.50
42803;DHT22;28447;48.682;9.022;2022-07-18T16:00:57;39.30;56.90
42803;DHT22;28447;48.682;9.022;2022-07-18T16:03:23;40.00;57.70
42803;DHT22;28447;48.682;9.022;2022-07-18T16:05:49;39.10;64.90
42803;DHT22;28447;48.682;9.022;2022-07-18T17:45:45;32.20;58.90
42803;DHT22;28447;48.682;9.022;2022-07-18T19:57:27;25.80;73.50
42803;DHT22;28447;48.682;9.022;2022-07-18T19:59:53;25.50;75.50
42803;DHT22;28447;48.682;9.022;2022-07-18T20:02:19;25.40;76.80
42803;DHT22;28447;48.682;9.022;2022-07-18T20:09:37;25.10;77.60
42803;DHT22;28447;48.682;9.022;2022-07-18T20:12:03;25.00;79.20
42803;DHT22;28447;48.682;9.022;2022-07-18T20:14:29;24.80;79.40
42803;DHT22;28447;48.682;9.022;2022-07-18T20:16:54;24.70;80.50
42803;DHT22;28447;48.682;9.022;2022-07-18T20:19:20;24.60;80.50
42803;DHT22;28447;48.682;9.022;2022-07-18T20:21:46;24.50;81.00
42803;DHT22;28447;48.682;9.022;2022-07-18T20:24:12;24.40;81.20
42803;DHT22;28447;48.682;9.022;2022-07-18T20:26:38;24.30;81.40
42803;DHT22;28447;48.682;9.022;2022-07-18T20:29:04;24.20;79.90
42803;DHT22;28447;48.682;9.022;2022-07-18T20:31:29;24.60;81.00
42803;DHT22;28447;48.682;9.022;2022-07-18T20:33:55;24.00;81.30
42803;DHT22;28447;48.682;9.022;2022-07-18T20:36:21;23.90;82.20
42803;DHT22;28447;48.682;9.022;2022-07-18T20:38:47;23.90;83.00
42803;DHT22;28447;48.682;9.022;2022-07-18T20:41:13;23.80;89.60
42803;DHT22;28447;48.682;9.022;2022-07-18T20:43:39;23.90;90.80
42803;DHT22;28447;48.682;9.022;2022-07-18T20:46:04;23.90;90.20
42803;DHT22;28447;48.682;9.022;2022-07-18T20:48:31;23.70;89.40
42803;DHT22;28447;48.682;9.022;2022-07-18T20:55:49;23.70;87.50
42803;DHT22;28447;48.682;9.022;2022-07-18T21:05:33;23.40;87.50
42803;DHT22;28447;48.682;9.022;2022-07-18T21:07:59;23.20;90.50
42803;DHT22;28447;48.682;9.022;2022-07-18T21:10:25;23.20;90.10
42803;DHT22;28447;48.682;9.022;2022-07-18T21:12:51;23.00;89.80
42803;DHT22;28447;48.682;9.022;2022-07-18T21:15:17;22.90;90.20
42803;DHT22;28447;48.682;9.022;2022-07-18T21:17:45;22.90;90.20
42803;DHT22;28447;48.682;9.022;2022-07-18T21:20:20;22.80;89.80
42803;DHT22;28447;48.682;9.022;2022-07-18T21:22:47;22.00;90.10
42803;DHT22;28447;48.682;9.022;2022-07-18T21:25:13;21.50;90.80
42803;DHT22;28447;48.682;9.022;2022-07-18T21:27:39;21.40;90.80
42803;DHT22;28447;48.682;9.022;2022-07-18T21:30:08;21.30;91.50
42803;DHT22;28447;48.682;9.022;2022-07-18T21:32:34;21.20;91.80
